LFBO Airport Information

Runway Information
Runway 14L Length 9843 ft width 148 ft
Elevation 490 ft Threshold 0 ft Heading 143
Runway 32R Length 9843 ft Width 148 ft
Elevation 497 ft Threshold 0 ft Heading 323
Runway 14R Length 11483 ft width 148 ft
Elevation 488 ft Threshold 0 ft Heading 143
Runway 32L Length 11483 ft Width 148 ft
Elevation 497 ft Threshold 0 ft Heading 323
Airport Frequencies
Type AFIS Name TOULOUSE I Frequency 121.25 MHZ
Type APP Name APP Frequency 121.1 MHZ
Type APP Name TOULOUSE A Frequency 125.175 MHZ
Type ATIS Name ATIS Frequency 123.125 MHZ
Type CLD Name CLNC DEL Frequency 121.7 MHZ
Type GND Name GND Frequency 121.9 MHZ
Type TWR Name TWR Frequency 118.1 MHZ
Airport Navaids
Type NDB Name Toulouse Frequency 415 KHZ
Type VOR-DME Name Toulouse Frequency 117700 KHZ
Type NDB Name Toulouse Frequency 423 KHZ
Type NDB Name Toulouse Frequency 406 KHZ
Airport Weather Information & NOTAM
ADDS - METARS form results

(0359 UTC 07 April 2020)
Data provider http://aviationweather.gov/metar/data/
 
METAR text: LFBO 070330Z AUTO 12011KT CAVOK 13/00 Q1024 NOSIG
Conditions at: LFBO (TOULOUSE/BLAGNAC, FR) observed 0330 UTC 07 April 2020
Temperature: 13.0°C (55°F)
Dewpoint: 0.0°C (32°F) [RH = 41%]
Pressure (altimeter): 30.24 inches Hg (1024.0 mb)
Winds: from the ESE (120 degrees) at 13 MPH (11 knots; 5.7 m/s)
Visibility: 6 or more miles (10+ km)
Ceiling: ceiling and visibility are OK
Clouds: unknown
Weather: no significant weather observed at this time

METAR text: LFBO 070300Z AUTO 13010KT CAVOK 13/00 Q1024 NOSIG
Conditions at: LFBO (TOULOUSE/BLAGNAC, FR) observed 0300 UTC 07 April 2020
Temperature: 13.0°C (55°F)
Dewpoint: 0.0°C (32°F) [RH = 41%]
Pressure (altimeter): 30.24 inches Hg (1024.0 mb)
Winds: from the SE (130 degrees) at 12 MPH (10 knots; 5.1 m/s)
Visibility: 6 or more miles (10+ km)
Ceiling: ceiling and visibility are OK
Clouds: unknown
Weather: no significant weather observed at this time

Forecast for: LFBO (TOULOUSE/BLAGNAC, FR)
Text: TAF LFBO 062300Z 0700/0806 13008KT CAVOK
Forecast period: 0000 UTC 07 April 2020 to 0600 UTC 08 April 2020
Forecast type: FROM: standard forecast or significant change
Winds: from the SE (130 degrees) at 9 MPH (8 knots; 4.1 m/s)
Visibility: 6 or more miles 10+ km)
Ceiling: unknown
Clouds: missing
Weather: NSW  (no significant weather)
Text: TEMPO 0710/0718 14015G25KT
Forecast period: 1000 to 1800 UTC 07 April 2020
Forecast type: TEMPORARY: The following changes expected for less than half the time period
Winds: from the SE (140 degrees) at 17 MPH (15 knots; 7.7 m/s)
gusting to 29 MPH (25 knots; 12.9 m/s)
Visibility: missing
Ceiling: unknown
Clouds: missing
Weather: no significant weather forecast for this period